Time;durP1;ratioP1;P1;durP2;ratioP2;P2;SDS_P1;SDS_P2;PMS_P1;PMS_P2;Temp;Humidity;BMP_temperature;BMP_pressure;BME280_temperature;BME280_humidity;BME280_pressure;Samples;Min_cycle;Max_cycle;Signal;HPM_P1;HPM_P2
2022/10/31 00:00:27;;;;;;;9.95;3.10;;;;;;;5.87;100.00;93539.47;2125830;27;20023;-72
2022/10/31 00:01:31;;;;;;;9.93;3.47;;;;;;;5.80;100.00;93540.22;2122264;27;20011;-72
2022/10/31 00:02:32;;;;;;;8.93;3.20;;;;;;;5.77;100.00;93543.59;2126606;27;20038;-72
2022/10/31 00:03:33;;;;;;;13.55;2.92;;;;;;;5.82;100.00;93537.94;2126186;27;20050;-71
2022/10/31 00:04:34;;;;;;;12.30;3.38;;;;;;;5.92;100.00;93535.72;2126737;27;20035;-71
2022/10/31 00:05:36;;;;;;;5.88;2.75;;;;;;;5.91;100.00;93540.22;2126395;27;20050;-71
2022/10/31 00:06:37;;;;;;;9.07;2.75;;;;;;;5.88;100.00;93538.31;2120195;27;20035;-72
2022/10/31 00:07:38;;;;;;;11.52;3.50;;;;;;;5.84;100.00;93536.78;2127190;27;20058;-72
2022/10/31 00:08:39;;;;;;;11.57;3.10;;;;;;;5.80;100.00;93534.16;2126513;27;20038;-71
2022/10/31 00:09:39;;;;;;;11.52;3.45;;;;;;;5.79;100.00;93541.34;2126272;27;20711;-73
2022/10/31 00:10:41;;;;;;;8.88;3.10;;;;;;;5.78;100.00;93539.06;2126655;27;20034;-72
2022/10/31 00:11:42;;;;;;;13.30;3.13;;;;;;;5.81;100.00;93533.00;2125682;27;20465;-71
2022/10/31 00:12:43;;;;;;;7.68;3.40;;;;;;;5.79;100.00;93537.91;2126511;27;20031;-71
2022/10/31 00:13:44;;;;;;;9.55;3.17;;;;;;;5.83;100.00;93533.38;2126369;27;20109;-71
2022/10/31 00:14:45;;;;;;;14.65;3.25;;;;;;;5.79;100.00;93537.91;2124235;27;20035;-72
2022/10/31 00:15:46;;;;;;;6.90;3.00;;;;;;;5.76;100.00;93538.69;2126390;27;20034;-72
2022/10/31 00:16:47;;;;;;;8.05;3.03;;;;;;;5.75;100.00;93535.28;2128265;27;20126;-72
2022/10/31 00:17:48;;;;;;;15.00;3.40;;;;;;;5.74;100.00;93539.03;2126656;27;20031;-71
2022/10/31 00:18:50;;;;;;;10.60;3.08;;;;;;;5.78;100.00;93536.41;2126552;27;20108;-71
2022/10/31 00:19:51;;;;;;;9.13;3.35;;;;;;;5.76;100.00;93539.44;2125945;27;20031;-72
2022/10/31 00:21:03;;;;;;;12.20;3.28;;;;;;;5.73;100.00;93540.19;2126521;27;20038;-71
2022/10/31 00:22:04;;;;;;;13.55;3.80;;;;;;;5.80;100.00;93539.47;2120061;27;20027;-72
2022/10/31 00:23:07;;;;;;;8.30;2.88;;;;;;;5.78;100.00;93541.72;2126140;27;20453;-73
2022/10/31 00:24:08;;;;;;;9.30;3.63;;;;;;;5.78;100.00;93541.72;2126577;27;20028;-71
2022/10/31 00:25:11;;;;;;;9.95;3.00;;;;;;;5.75;100.00;93531.84;2126519;27;20024;-72
2022/10/31 00:26:13;;;;;;;12.45;3.10;;;;;;;5.69;100.00;93533.34;2126249;27;20072;-72
2022/10/31 00:27:14;;;;;;;9.32;2.85;;;;;;;5.71;100.00;93539.81;2125597;27;20103;-72
2022/10/31 00:28:15;;;;;;;9.00;3.45;;;;;;;5.66;100.00;93528.78;2126902;27;20027;-71
2022/10/31 00:29:16;;;;;;;7.93;3.38;;;;;;;5.67;100.00;93533.72;2126002;27;20508;-72
2022/10/31 00:30:17;;;;;;;10.18;3.05;;;;;;;5.69;100.00;93533.34;2128194;27;20035;-72
2022/10/31 00:31:18;;;;;;;15.48;3.88;;;;;;;5.71;100.00;93531.84;2126378;27;20062;-72
2022/10/31 00:32:19;;;;;;;12.25;2.97;;;;;;;5.60;100.00;93528.38;2122718;27;20050;-71
2022/10/31 00:33:20;;;;;;;14.65;3.67;;;;;;;5.61;100.00;93529.91;2124167;27;20023;-71
2022/10/31 00:34:21;;;;;;;10.00;3.42;;;;;;;5.62;100.00;93536.75;2126433;27;20472;-71
2022/10/31 00:35:22;;;;;;;14.63;3.78;;;;;;;5.63;100.00;93532.19;2126399;27;20031;-72
2022/10/31 00:36:22;;;;;;;8.93;3.17;;;;;;;5.67;100.00;93528.44;2126328;27;20424;-71
2022/10/31 00:37:23;;;;;;;13.23;3.00;;;;;;;5.60;100.00;93527.63;2124362;27;20480;-71
2022/10/31 00:38:24;;;;;;;11.18;3.17;;;;;;;5.55;100.00;93526.09;2121076;27;20030;-71
2022/10/31 00:39:25;;;;;;;17.42;3.35;;;;;;;5.60;100.00;93525.72;2126715;27;20037;-70
2022/10/31 00:40:26;;;;;;;9.27;2.80;;;;;;;5.67;100.00;93531.06;2126369;27;20043;-71
2022/10/31 00:41:28;;;;;;;10.82;3.30;;;;;;;5.67;100.00;93531.06;2126356;27;20054;-72
2022/10/31 00:42:29;;;;;;;7.03;3.00;;;;;;;5.65;100.00;93529.91;2121281;27;20050;-72
2022/10/31 00:43:30;;;;;;;7.28;3.13;;;;;;;5.66;100.00;93523.47;2125761;27;20027;-71
2022/10/31 00:44:31;;;;;;;10.80;3.65;;;;;;;5.61;100.00;93523.84;2126914;27;20131;-71
2022/10/31 00:45:32;;;;;;;11.95;3.00;;;;;;;5.58;100.00;93527.25;2126674;27;20031;-71
2022/10/31 00:46:33;;;;;;;17.50;3.90;;;;;;;5.62;100.00;93525.34;2126246;27;20019;-71
2022/10/31 00:47:34;;;;;;;10.55;3.20;;;;;;;5.59;100.00;93521.56;2128861;27;20031;-71
2022/10/31 00:48:35;;;;;;;11.98;2.92;;;;;;;5.65;100.00;93527.25;2125531;27;20042;-72
2022/10/31 00:49:37;;;;;;;11.07;2.90;;;;;;;5.67;100.00;93530.31;2126286;27;20437;-71
2022/10/31 00:50:38;;;;;;;10.55;3.45;;;;;;;5.62;100.00;93530.66;2126337;27;20035;-71
2022/10/31 00:51:39;;;;;;;15.32;3.45;;;;;;;5.53;100.00;93525.69;2125347;27;20472;-71
2022/10/31 00:52:41;;;;;;;9.35;3.20;;;;;;;5.55;100.00;93528.75;2123313;27;20052;-71
2022/10/31 00:53:43;;;;;;;14.73;3.42;;;;;;;5.57;100.00;93529.13;2119404;27;20046;-70
2022/10/31 00:54:44;;;;;;;10.82;3.70;;;;;;;5.56;100.00;93528.38;2126183;27;20034;-72
2022/10/31 00:55:45;;;;;;;8.68;3.72;;;;;;;5.47;100.00;93525.31;2126037;27;20543;-71
2022/10/31 00:56:45;;;;;;;8.15;3.63;;;;;;;5.52;100.00;93534.78;2126178;27;20475;-72
2022/10/31 00:57:47;;;;;;;10.68;3.30;;;;;;;5.52;100.00;93529.50;2126139;27;20043;-72
2022/10/31 00:58:48;;;;;;;10.27;2.70;;;;;;;5.51;100.00;93525.31;2123560;27;20045;-70
2022/10/31 00:59:49;;;;;;;20.25;3.30;;;;;;;5.47;100.00;93527.97;2126594;27;20035;-71
2022/10/31 01:00:56;;;;;;;9.00;3.17;;;;;;;5.42;100.00;93527.56;2126174;27;20035;-71
2022/10/31 01:01:57;;;;;;;13.73;3.38;;;;;;;5.47;100.00;93527.97;2126192;27;20120;-70
2022/10/31 01:02:58;;;;;;;10.25;3.40;;;;;;;5.49;100.00;93527.59;2121436;27;20137;-71
2022/10/31 01:03:59;;;;;;;11.85;3.95;;;;;;;5.47;100.00;93525.31;2122314;27;20037;-71
2022/10/31 01:05:01;;;;;;;12.32;3.45;;;;;;;5.46;100.00;93523.03;2126086;27;20061;-71
2022/10/31 01:06:08;;;;;;;11.98;3.47;;;;;;;5.41;100.00;93518.84;2126164;27;20042;-71
2022/10/31 01:07:11;;;;;;;10.25;3.70;;;;;;;5.46;100.00;93515.84;2126128;27;20027;-71
2022/10/31 01:08:12;;;;;;;12.70;4.70;;;;;;;5.47;100.00;93517.34;2126166;27;20092;-71
2022/10/31 01:09:13;;;;;;;14.95;4.05;;;;;;;5.44;100.00;93520.75;2123794;27;20477;-72
2022/10/31 01:10:13;;;;;;;8.10;3.40;;;;;;;5.45;100.00;93516.97;2127650;27;20436;-71
2022/10/31 01:11:21;;;;;;;8.98;3.50;;;;;;;5.44;100.00;93520.75;2126028;27;20097;-71
2022/10/31 01:12:22;;;;;;;7.70;3.05;;;;;;;5.50;100.00;93521.16;2125975;27;20359;-71
2022/10/31 01:13:23;;;;;;;7.75;3.15;;;;;;;5.44;100.00;93517.34;2125654;27;20035;-72
2022/10/31 01:14:24;;;;;;;9.52;4.40;;;;;;;5.46;100.00;93521.13;2125460;27;20042;-71
2022/10/31 01:15:27;;;;;;;8.07;3.50;;;;;;;5.48;100.00;93518.09;2125760;27;20038;-71
2022/10/31 01:16:29;;;;;;;15.38;3.90;;;;;;;5.41;100.00;93521.50;2125618;27;20617;-71
2022/10/31 01:17:30;;;;;;;10.57;3.25;;;;;;;5.46;100.00;93518.50;2123083;27;20023;-72
2022/10/31 01:18:31;;;;;;;12.73;3.28;;;;;;;5.45;100.00;93516.97;2126283;27;20423;-72
2022/10/31 01:19:32;;;;;;;12.95;3.30;;;;;;;5.41;100.00;93515.44;2126870;27;20031;-71
2022/10/31 01:20:33;;;;;;;11.55;3.83;;;;;;;5.39;100.00;93515.03;2123432;27;20027;-72
2022/10/31 01:21:35;;;;;;;16.00;3.78;;;;;;;5.36;100.00;93513.16;2122720;27;20027;-72
2022/10/31 01:22:36;;;;;;;13.43;3.40;;;;;;;5.38;100.00;93516.19;2125742;27;20027;-71
2022/10/31 01:23:37;;;;;;;9.63;3.58;;;;;;;5.41;100.00;93512.78;2125788;27;20122;-72
2022/10/31 01:24:38;;;;;;;8.32;3.20;;;;;;;5.40;100.00;93509.38;2124282;27;20361;-71
2022/10/31 01:25:39;;;;;;;10.52;3.50;;;;;;;5.34;100.00;93510.84;2126124;27;20037;-71
2022/10/31 01:26:40;;;;;;;12.30;3.22;;;;;;;5.37;100.00;93510.13;2125794;27;20103;-72
2022/10/31 01:27:41;;;;;;;12.32;3.10;;;;;;;5.36;100.00;93507.84;2123770;27;20027;-71
2022/10/31 01:28:50;;;;;;;11.65;3.10;;;;;;;5.34;100.00;93510.84;2125393;27;20535;-72
2022/10/31 01:29:51;;;;;;;7.63;3.20;;;;;;;5.34;100.00;93510.09;2123344;27;20426;-72
2022/10/31 01:30:52;;;;;;;13.25;2.95;;;;;;;5.32;100.00;93510.47;2125927;27;20046;-71
2022/10/31 01:31:53;;;;;;;7.28;3.05;;;;;;;5.36;100.00;93513.91;2126594;27;20023;-71
2022/10/31 01:32:54;;;;;;;6.75;2.83;;;;;;;5.37;100.00;93512.78;2126474;27;20031;-72
2022/10/31 01:33:55;;;;;;;10.63;2.67;;;;;;;5.33;100.00;93506.69;2126258;27;20062;-72
2022/10/31 01:34:56;;;;;;;10.52;3.22;;;;;;;5.30;100.00;93505.53;2126283;27;20138;-72
2022/10/31 01:35:57;;;;;;;11.30;3.22;;;;;;;5.35;100.00;93506.31;2122273;27;20026;-72
2022/10/31 01:36:58;;;;;;;9.50;3.08;;;;;;;5.32;100.00;93513.13;2122201;27;20037;-73
2022/10/31 01:38:00;;;;;;;16.88;3.10;;;;;;;5.30;100.00;93510.09;2126634;27;20023;-71
2022/10/31 01:39:07;;;;;;;14.80;4.55;;;;;;;5.29;100.00;93501.38;2126644;27;20113;-71
2022/10/31 01:40:09;;;;;;;12.93;3.13;;;;;;;5.25;100.00;93502.50;2126369;27;20643;-71
2022/10/31 01:41:11;;;;;;;8.25;3.10;;;;;;;5.21;100.00;93512.31;2125867;27;20046;-71
2022/10/31 01:42:19;;;;;;;6.07;3.00;;;;;;;5.19;100.00;93504.75;2125875;27;20105;-72
2022/10/31 01:43:20;;;;;;;13.48;2.90;;;;;;;5.20;100.00;93505.50;2125657;27;20027;-71
2022/10/31 01:44:24;;;;;;;7.65;3.00;;;;;;;5.19;100.00;93499.44;2126459;27;20023;-70
2022/10/31 01:45:25;;;;;;;6.63;2.50;;;;;;;5.18;100.00;93505.88;2124700;27;20146;-71
2022/10/31 01:46:45;;;;;;;18.35;3.53;;;;;;;5.24;100.00;93503.63;2125511;27;20031;-71
2022/10/31 01:47:47;;;;;;;7.63;2.83;;;;;;;5.23;100.00;93500.22;2123996;27;20109;-71
2022/10/31 01:48:50;;;;;;;12.07;3.00;;;;;;;5.22;100.00;93508.53;2123798;27;20444;-71
2022/10/31 01:49:54;;;;;;;10.27;3.10;;;;;;;5.25;100.00;93502.50;2125829;27;20083;-71
2022/10/31 01:50:55;;;;;;;9.07;2.78;;;;;;;5.23;100.00;93500.22;2121636;27;20162;-71
2022/10/31 01:52:00;;;;;;;12.68;3.58;;;;;;;5.23;100.00;93496.81;2129876;27;20034;-71
2022/10/31 01:53:06;;;;;;;8.40;3.40;;;;;;;5.18;100.00;93500.59;2122133;27;20034;-71
2022/10/31 01:54:12;;;;;;;8.95;2.85;;;;;;;5.11;100.00;93500.53;2125770;27;20030;-71
2022/10/31 01:55:26;;;;;;;11.20;3.30;;;;;;;5.11;100.00;93503.19;2127198;27;20030;-71
2022/10/31 01:56:27;;;;;;;14.65;2.92;;;;;;;5.11;100.00;93502.44;2124522;27;20041;-71
2022/10/31 01:57:31;;;;;;;5.32;2.55;;;;;;;5.06;100.00;93506.19;2121513;27;20031;-71
2022/10/31 01:58:33;;;;;;;8.13;2.45;;;;;;;5.08;100.00;93500.50;2126513;27;20026;-71
2022/10/31 01:59:40;;;;;;;18.50;3.25;;;;;;;5.09;100.00;93500.13;2125810;27;20801;-70
2022/10/31 02:00:45;;;;;;;8.27;2.58;;;;;;;5.11;100.00;93505.06;2124837;27;20390;-71
2022/10/31 02:01:50;;;;;;;11.40;3.78;;;;;;;5.04;100.00;93501.25;2124395;27;20062;-71
2022/10/31 02:02:51;;;;;;;6.13;2.80;;;;;;;5.09;100.00;93499.38;2125966;27;20033;-71
2022/10/31 02:03:52;;;;;;;11.18;3.58;;;;;;;5.04;100.00;93501.25;2125978;27;20066;-71
2022/10/31 02:04:54;;;;;;;6.65;3.22;;;;;;;5.07;100.00;93494.47;2125870;27;20031;-71
2022/10/31 02:05:57;;;;;;;9.73;3.53;;;;;;;5.11;100.00;93505.84;2125229;27;20801;-71
2022/10/31 02:07:03;;;;;;;9.15;3.25;;;;;;;5.08;100.00;93495.22;2125095;27;20037;-71
2022/10/31 02:08:15;;;;;;;14.25;3.08;;;;;;;5.07;100.00;93493.69;2122238;27;20827;-71
2022/10/31 02:09:17;;;;;;;8.40;3.30;;;;;;;5.09;100.00;93496.72;2121481;27;20031;-71
2022/10/31 02:10:21;;;;;;;13.63;3.38;;;;;;;5.09;100.00;93499.38;2125802;27;20041;-72
2022/10/31 02:11:28;;;;;;;13.32;2.97;;;;;;;5.09;100.00;93497.47;2125389;27;20030;-71
2022/10/31 02:12:31;;;;;;;9.60;3.10;;;;;;;5.09;100.00;93494.06;2121672;27;20033;-71
2022/10/31 02:13:34;;;;;;;12.93;2.97;;;;;;;5.09;100.00;93489.53;2125508;27;20114;-71
2022/10/31 02:16:17;;;;;;;;;;;;;;;5.05;100.00;93489.53;2146471;27;20546;-69
2022/10/31 02:17:18;;;;;;;10.77;3.08;;;;;;;5.07;100.00;93489.16;2138843;27;19928;-71
2022/10/31 02:18:20;;;;;;;17.75;3.33;;;;;;;5.02;100.00;93489.50;2141819;27;20476;-72
2022/10/31 02:19:35;;;;;;;14.82;2.92;;;;;;;5.08;100.00;93485.38;2141744;27;20034;-72
2022/10/31 02:21:15;;;;;;;11.10;2.65;;;;;;;5.02;100.00;93486.88;2138936;27;20101;-71
2022/10/31 02:22:24;;;;;;;10.27;3.20;;;;;;;4.98;100.00;93489.50;2101815;27;20051;-71
2022/10/31 02:23:34;;;;;;;9.27;3.00;;;;;;;4.93;100.00;93489.84;2141085;27;20038;-71
2022/10/31 02:25:08;;;;;;;9.65;3.05;;;;;;;4.95;100.00;93482.28;2138321;27;20368;-71
2022/10/31 02:26:27;;;;;;;15.20;3.58;;;;;;;4.87;100.00;93486.00;2139107;27;20056;-72
2022/10/31 02:27:34;;;;;;;10.07;3.17;;;;;;;4.91;100.00;93481.50;2141653;27;20026;-71
2022/10/31 02:28:38;;;;;;;5.97;2.90;;;;;;;4.95;100.00;93481.53;2138529;27;20037;-71
2022/10/31 02:29:49;;;;;;;10.13;3.08;;;;;;;4.97;100.00;93481.94;2141575;27;20033;-73
2022/10/31 02:31:09;;;;;;;9.80;3.35;;;;;;;4.98;100.00;93478.91;2140888;27;20018;-71
2022/10/31 02:32:27;;;;;;;11.95;2.97;;;;;;;4.94;100.00;93480.75;2139493;27;20030;-72
2022/10/31 02:33:34;;;;;;;12.32;3.13;;;;;;;4.96;100.00;93481.16;2140392;27;20147;-73
2022/10/31 02:35:22;;;;;;;8.57;3.65;;;;;;;4.93;100.00;93475.84;2141529;27;20074;-71
2022/10/31 02:36:37;;;;;;;6.97;2.80;;;;;;;4.94;100.00;93477.34;2140906;27;20023;-71
2022/10/31 02:37:51;;;;;;;12.57;2.70;;;;;;;4.88;100.00;93479.59;2138511;27;20033;-71
2022/10/31 02:39:02;;;;;;;6.00;3.05;;;;;;;4.84;100.00;93478.81;2143540;27;20018;-71
2022/10/31 02:40:28;;;;;;;12.10;3.88;;;;;;;4.92;100.00;93472.44;2141525;27;20026;-72
2022/10/31 02:41:44;;;;;;;10.48;4.22;;;;;;;4.92;100.00;93476.97;2137258;27;20033;-71
2022/10/31 02:42:57;;;;;;;5.95;3.13;;;;;;;4.90;100.00;93472.03;2141602;27;20038;-72
2022/10/31 02:44:22;;;;;;;10.38;2.80;;;;;;;4.88;100.00;93476.97;2130412;27;20045;-71
2022/10/31 02:45:33;;;;;;;11.27;3.40;;;;;;;4.90;100.00;93474.69;2141528;27;20026;-71
2022/10/31 02:46:49;;;;;;;11.73;3.38;;;;;;;4.92;100.00;93479.63;2137978;27;20041;-72
2022/10/31 02:47:54;;;;;;;9.25;2.83;;;;;;;4.87;100.00;93478.06;2141407;27;20033;-72
2022/10/31 02:49:01;;;;;;;15.48;3.25;;;;;;;4.91;100.00;93481.50;2140598;27;20135;-72
2022/10/31 02:50:16;;;;;;;9.48;2.55;;;;;;;4.86;100.00;93473.91;2138215;27;20078;-71
2022/10/31 02:51:17;;;;;;;7.20;2.70;;;;;;;4.87;100.00;93478.06;2142205;27;20033;-72
2022/10/31 02:52:25;;;;;;;11.23;3.50;;;;;;;4.90;100.00;93473.94;2141917;27;20038;-71
2022/10/31 02:53:26;;;;;;;9.57;2.95;;;;;;;4.91;100.00;93481.50;2141664;27;20046;-72
2022/10/31 02:54:28;;;;;;;12.70;4.07;;;;;;;4.87;100.00;93480.72;2141499;27;20566;-71
2022/10/31 02:55:29;;;;;;;10.63;3.33;;;;;;;4.84;100.00;93476.19;2137312;27;20030;-72
2022/10/31 02:56:30;;;;;;;10.98;3.40;;;;;;;4.81;100.00;93471.63;2141448;27;20030;-72
2022/10/31 02:57:35;;;;;;;13.90;3.30;;;;;;;4.80;100.00;93475.41;2141078;27;20041;-71
2022/10/31 02:58:40;;;;;;;12.10;2.88;;;;;;;4.83;100.00;93472.00;2141379;27;20026;-72
2022/10/31 02:59:49;;;;;;;6.63;2.95;;;;;;;4.83;100.00;93473.88;2141500;27;20057;-72
2022/10/31 03:01:01;;;;;;;12.02;3.20;;;;;;;4.80;100.00;93478.03;2140109;27;20034;-71
2022/10/31 03:02:21;;;;;;;10.18;3.08;;;;;;;4.82;100.00;93475.78;2137543;27;20103;-71
2022/10/31 03:03:37;;;;;;;10.18;3.28;;;;;;;4.85;100.00;93480.34;2140854;27;20058;-71
2022/10/31 03:04:55;;;;;;;12.25;2.80;;;;;;;4.82;100.00;93481.06;2141432;27;20039;-71
2022/10/31 03:06:20;;;;;;;9.57;3.65;;;;;;;4.81;100.00;93476.91;2141537;27;20023;-71
2022/10/31 03:07:31;;;;;;;8.10;2.92;;;;;;;4.78;100.00;93477.63;2130794;27;20054;-71
2022/10/31 03:08:42;;;;;;;17.48;3.40;;;;;;;4.82;100.00;93473.13;2133629;27;20075;-72
2022/10/31 03:09:56;;;;;;;10.52;3.55;;;;;;;4.76;100.00;93472.72;2141262;27;20022;-72
2022/10/31 03:11:01;;;;;;;8.73;3.33;;;;;;;4.80;100.00;93475.41;2139409;27;20051;-71
2022/10/31 03:12:11;;;;;;;11.70;2.95;;;;;;;4.74;100.00;93468.91;2141131;27;20022;-71
2022/10/31 03:13:20;;;;;;;13.18;3.10;;;;;;;4.75;100.00;93471.22;2140999;27;20019;-72
2022/10/31 03:14:29;;;;;;;8.80;2.70;;;;;;;4.77;100.00;93473.47;2142075;27;20771;-71
2022/10/31 03:15:53;;;;;;;7.25;2.88;;;;;;;4.71;100.00;93473.06;2127678;27;20063;-72
2022/10/31 03:16:59;;;;;;;7.95;2.78;;;;;;;4.72;100.00;93463.25;2143939;27;20030;-71
2022/10/31 03:18:15;;;;;;;9.98;2.92;;;;;;;4.73;100.00;93464.75;2137320;27;20341;-72
2022/10/31 03:19:24;;;;;;;6.18;2.72;;;;;;;4.72;100.00;93471.94;2141306;27;20033;-72
2022/10/31 03:20:40;;;;;;;9.40;2.90;;;;;;;4.77;100.00;93473.47;2141239;27;20061;-72
2022/10/31 03:21:55;;;;;;;9.63;3.13;;;;;;;4.65;100.00;93473.78;2132229;27;20061;-72
2022/10/31 03:23:00;;;;;;;19.25;2.67;;;;;;;4.71;100.00;93467.78;2141274;27;20037;-71
2022/10/31 03:24:05;;;;;;;6.30;2.83;;;;;;;4.71;100.00;93472.31;2136745;27;20426;-71
2022/10/31 03:25:07;;;;;;;14.73;3.15;;;;;;;4.72;100.00;93474.59;2141267;27;20025;-72
2022/10/31 03:26:11;;;;;;;10.60;2.75;;;;;;;4.67;100.00;93468.88;2139416;27;20420;-71
2022/10/31 03:27:15;;;;;;;15.60;3.40;;;;;;;4.68;100.00;93467.75;2138148;27;20026;-72
2022/10/31 03:28:21;;;;;;;13.18;2.90;;;;;;;4.65;100.00;93469.22;2125987;27;20023;-72
2022/10/31 03:29:27;;;;;;;13.20;3.42;;;;;;;4.64;100.00;93467.72;2127024;27;20030;-71
2022/10/31 03:30:33;;;;;;;13.05;3.65;;;;;;;4.68;100.00;93465.84;2131208;27;20057;-71
2022/10/31 03:31:38;;;;;;;13.52;2.80;;;;;;;4.69;100.00;93469.25;2130780;27;20043;-71
2022/10/31 03:32:52;;;;;;;6.85;2.92;;;;;;;4.70;100.00;93470.81;2135362;27;20046;-72
2022/10/31 03:33:58;;;;;;;7.72;2.85;;;;;;;4.67;100.00;93474.19;2134848;27;20651;-73
2022/10/31 03:35:02;;;;;;;11.40;3.30;;;;;;;4.68;100.00;93467.75;2131198;27;20034;-72
2022/10/31 03:36:06;;;;;;;11.73;3.17;;;;;;;4.63;100.00;93470.75;2135148;27;20068;-73
2022/10/31 03:37:10;;;;;;;6.25;3.08;;;;;;;4.62;100.00;93474.53;2125028;27;20027;-72
2022/10/31 03:38:14;;;;;;;11.85;3.15;;;;;;;4.67;100.00;93464.34;2135414;27;20026;-72
2022/10/31 03:39:19;;;;;;;7.03;2.83;;;;;;;4.64;100.00;93467.72;2135084;27;20038;-72
2022/10/31 03:40:23;;;;;;;10.80;3.35;;;;;;;4.65;100.00;93465.84;2135356;27;20033;-72
2022/10/31 03:41:30;;;;;;;12.35;3.40;;;;;;;4.61;100.00;93470.34;2131860;27;20489;-72
2022/10/31 03:42:34;;;;;;;18.73;3.47;;;;;;;4.60;100.00;93461.66;2131493;27;20479;-71
2022/10/31 03:43:42;;;;;;;14.40;3.15;;;;;;;4.62;100.00;93461.28;2135069;27;20034;-71
2022/10/31 03:44:49;;;;;;;10.32;2.97;;;;;;;4.59;100.00;93457.47;2135097;27;20106;-72
2022/10/31 03:45:51;;;;;;;11.05;3.60;;;;;;;4.57;100.00;93461.66;2135271;27;20022;-71
2022/10/31 03:46:52;;;;;;;9.82;3.30;;;;;;;4.64;100.00;93456.38;2136228;27;20037;-71
2022/10/31 03:47:55;;;;;;;10.95;2.92;;;;;;;4.61;100.00;93459.75;2134580;27;20023;-71
2022/10/31 03:48:56;;;;;;;9.20;3.05;;;;;;;4.56;100.00;93460.84;2135275;27;20041;-72
2022/10/31 03:49:57;;;;;;;14.48;3.20;;;;;;;4.54;100.00;93465.78;2134989;27;20037;-72
2022/10/31 03:51:35;;;;;;;7.22;3.22;;;;;;;4.49;100.00;93455.53;2131141;27;20025;-71
2022/10/31 03:52:57;;;;;;;5.03;2.58;;;;;;;4.49;100.00;93460.84;2108261;28;20455;-71
2022/10/31 03:54:09;;;;;;;8.60;2.70;;;;;;;4.53;100.00;93461.63;2135228;27;20045;-72
2022/10/31 03:55:36;;;;;;;8.13;3.15;;;;;;;4.54;100.00;93458.59;2133163;27;20064;-71
2022/10/31 03:57:11;;;;;;;14.23;3.60;;;;;;;4.58;100.00;93463.16;2133519;27;20535;-72
2022/10/31 03:58:33;;;;;;;8.65;2.75;;;;;;;4.57;100.00;93448.41;2133140;27;20082;-71
2022/10/31 03:59:50;;;;;;;10.10;2.97;;;;;;;4.62;100.00;93450.69;2131817;27;20030;-72
2022/10/31 04:00:54;;;;;;;9.10;2.85;;;;;;;4.55;100.00;93449.50;2138680;27;20038;-72
2022/10/31 04:02:00;;;;;;;6.85;3.05;;;;;;;4.57;100.00;93451.06;2135155;27;20041;-71
2022/10/31 04:03:17;;;;;;;8.23;3.45;;;;;;;4.54;100.00;93447.25;2130993;27;20038;-72
2022/10/31 04:04:20;;;;;;;12.27;3.28;;;;;;;4.54;100.00;93448.00;2135009;27;20027;-71
2022/10/31 04:05:21;;;;;;;7.68;2.80;;;;;;;4.57;100.00;93445.75;2135028;27;20050;-71
2022/10/31 04:06:24;;;;;;;15.70;3.78;;;;;;;4.57;100.00;93448.41;2134559;27;20612;-71
2022/10/31 04:07:30;;;;;;;14.43;3.10;;;;;;;4.56;100.00;93450.28;2135179;27;20159;-71
2022/10/31 04:08:39;;;;;;;8.85;2.80;;;;;;;4.55;100.00;93448.75;2128277;27;20456;-71
2022/10/31 04:09:44;;;;;;;25.10;3.70;;;;;;;4.41;100.00;93451.31;2134978;27;20027;-71
2022/10/31 04:10:51;;;;;;;9.90;3.75;;;;;;;4.46;100.00;93451.72;2134884;27;20031;-72
2022/10/31 04:11:55;;;;;;;10.43;2.95;;;;;;;4.52;100.00;93454.78;2131402;27;20050;-72
2022/10/31 04:13:01;;;;;;;7.57;3.00;;;;;;;4.56;100.00;93450.28;2135195;27;20031;-71
2022/10/31 04:14:04;;;;;;;10.63;2.70;;;;;;;4.52;100.00;93449.50;2132048;27;20102;-72
2022/10/31 04:15:07;;;;;;;14.32;3.22;;;;;;;4.53;100.00;93453.69;2135197;27;20162;-71
2022/10/31 04:16:09;;;;;;;13.20;3.05;;;;;;;4.54;100.00;93449.91;2135238;27;20620;-71
2022/10/31 04:17:14;;;;;;;8.00;3.10;;;;;;;4.55;100.00;93456.69;2135277;27;20030;-71
2022/10/31 04:18:15;;;;;;;8.02;3.38;;;;;;;4.54;100.00;93448.00;2135049;27;20023;-71
2022/10/31 04:19:16;;;;;;;9.55;2.88;;;;;;;4.52;100.00;93458.22;2134078;27;20464;-72
2022/10/31 04:20:18;;;;;;;9.90;3.38;;;;;;;4.58;100.00;93455.22;2135023;27;20072;-71
2022/10/31 04:21:19;;;;;;;10.63;3.38;;;;;;;4.59;100.00;93454.84;2134992;27;20034;-71
2022/10/31 04:22:20;;;;;;;10.90;3.38;;;;;;;4.53;100.00;93449.13;2131838;27;20047;-71
2022/10/31 04:23:25;;;;;;;10.52;3.35;;;;;;;4.55;100.00;93452.16;2134517;27;20421;-72
2022/10/31 04:24:26;;;;;;;12.93;3.35;;;;;;;4.48;100.00;93452.13;2135787;27;20022;-71
2022/10/31 04:25:27;;;;;;;10.93;3.67;;;;;;;4.53;100.00;93454.44;2125741;27;20026;-71
2022/10/31 04:26:28;;;;;;;7.50;2.95;;;;;;;4.52;100.00;93449.50;2125600;27;20083;-71
2022/10/31 04:27:29;;;;;;;5.75;2.78;;;;;;;4.53;100.00;93446.50;2133932;27;20037;-72
2022/10/31 04:28:30;;;;;;;11.75;3.33;;;;;;;4.53;100.00;93456.31;2134919;27;20114;-70
2022/10/31 04:29:31;;;;;;;12.88;3.00;;;;;;;4.45;100.00;93444.91;2130064;27;20030;-71
2022/10/31 04:30:32;;;;;;;11.88;3.20;;;;;;;4.48;100.00;93443.44;2135003;27;20034;-72
2022/10/31 04:31:32;;;;;;;7.40;3.20;;;;;;;4.47;100.00;93437.34;2139288;27;20108;-71
2022/10/31 04:32:33;;;;;;;7.70;3.42;;;;;;;4.44;100.00;93448.69;2125714;27;20031;-71
2022/10/31 04:33:34;;;;;;;12.80;4.30;;;;;;;4.44;100.00;93448.69;2125370;27;20043;-71
2022/10/31 04:34:35;;;;;;;10.85;3.17;;;;;;;4.43;100.00;93444.50;2134751;27;20107;-71
2022/10/31 04:35:36;;;;;;;10.05;3.25;;;;;;;4.37;100.00;93440.72;2131663;27;20034;-72
2022/10/31 04:36:38;;;;;;;16.05;3.30;;;;;;;4.38;100.00;93449.41;2134760;27;20086;-71
2022/10/31 04:37:39;;;;;;;9.85;3.00;;;;;;;4.34;100.00;93444.06;2134921;27;20037;-72
2022/10/31 04:38:40;;;;;;;10.13;3.60;;;;;;;4.41;100.00;93438.09;2134430;27;20030;-71
2022/10/31 04:39:41;;;;;;;9.75;3.40;;;;;;;4.48;100.00;93448.72;2134148;27;20030;-71
2022/10/31 04:40:42;;;;;;;13.55;3.28;;;;;;;4.48;100.00;93446.84;2134115;27;20102;-72
2022/10/31 04:41:43;;;;;;;11.45;3.60;;;;;;;4.43;100.00;93444.50;2134680;27;20058;-71
2022/10/31 04:42:44;;;;;;;8.70;3.17;;;;;;;4.44;100.00;93443.41;2135131;27;20022;-71
2022/10/31 04:43:45;;;;;;;7.60;4.03;;;;;;;4.43;100.00;93447.16;2134628;27;20030;-72
2022/10/31 04:44:46;;;;;;;6.55;3.03;;;;;;;4.38;100.00;93438.81;2134858;27;20034;-71
2022/10/31 04:45:47;;;;;;;8.38;2.70;;;;;;;4.40;100.00;93445.28;2123490;27;20502;-72
2022/10/31 04:46:48;;;;;;;13.25;3.63;;;;;;;4.43;100.00;93441.13;2125412;27;20586;-72
2022/10/31 04:47:49;;;;;;;9.27;3.13;;;;;;;4.43;100.00;93444.50;2134308;27;20038;-72
2022/10/31 04:48:50;;;;;;;11.57;3.55;;;;;;;4.40;100.00;93442.63;2137594;27;20109;-72
2022/10/31 04:49:51;;;;;;;12.75;3.47;;;;;;;4.33;100.00;93442.56;2134725;27;20101;-72
2022/10/31 04:50:52;;;;;;;8.60;3.13;;;;;;;4.37;100.00;93437.31;2134106;27;20437;-72
2022/10/31 04:51:53;;;;;;;10.35;3.92;;;;;;;4.40;100.00;93436.56;2134494;27;20492;-72
2022/10/31 04:52:55;;;;;;;14.50;3.55;;;;;;;4.36;100.00;93436.53;2134800;27;20467;-72
2022/10/31 04:53:56;;;;;;;11.45;3.15;;;;;;;4.34;100.00;93430.84;2134445;27;20915;-72
2022/10/31 04:54:57;;;;;;;9.35;3.50;;;;;;;4.29;100.00;93436.47;2134793;27;20098;-72
2022/10/31 04:56:01;;;;;;;6.82;3.10;;;;;;;4.32;100.00;93433.13;2129987;27;20022;-71
2022/10/31 04:57:02;;;;;;;20.55;3.38;;;;;;;4.34;100.00;93430.84;2134567;27;20468;-72
2022/10/31 04:58:03;;;;;;;7.82;3.53;;;;;;;4.33;100.00;93434.63;2134710;27;20030;-71
2022/10/31 04:59:04;;;;;;;12.10;3.38;;;;;;;4.33;100.00;93431.97;2131502;27;20110;-71
2022/10/31 05:00:06;;;;;;;12.27;3.30;;;;;;;4.30;100.00;93435.34;2135188;27;20042;-71
2022/10/31 05:01:07;;;;;;;16.23;3.75;;;;;;;4.36;100.00;93441.09;2134546;27;20041;-70
2022/10/31 05:02:08;;;;;;;14.73;3.55;;;;;;;4.39;100.00;93430.53;2133638;27;20046;-72
2022/10/31 05:03:09;;;;;;;11.43;3.78;;;;;;;4.36;100.00;93433.13;2134471;27;20030;-72
2022/10/31 05:04:10;;;;;;;11.50;3.65;;;;;;;4.37;100.00;93424.81;2134892;27;20041;-71
2022/10/31 05:05:12;;;;;;;8.43;3.03;;;;;;;4.34;100.00;93424.78;2135460;27;20101;-72
2022/10/31 05:06:13;;;;;;;7.78;2.85;;;;;;;4.31;100.00;93425.56;2131880;27;20023;-72